sensor_id;sensor_type;location;lat;lon;timestamp;P1;durP1;ratioP1;P2;durP2;ratioP2
19653;SDS011;9975;48.046;7.804;2023-04-24T01:56:42;0.93;;;0.57;;
19653;SDS011;9975;48.046;7.804;2023-04-24T01:59:09;2.13;;;0.50;;
19653;SDS011;9975;48.046;7.804;2023-04-24T02:01:36;0.70;;;0.50;;
19653;SDS011;9975;48.046;7.804;2023-04-24T02:04:03;0.67;;;0.40;;
19653;SDS011;9975;48.046;7.804;2023-04-24T02:06:29;2.20;;;0.60;;
19653;SDS011;9975;48.046;7.804;2023-04-24T02:08:56;2.10;;;0.70;;
19653;SDS011;9975;48.046;7.804;2023-04-24T02:11:22;3.30;;;0.50;;
19653;SDS011;9975;48.046;7.804;2023-04-24T02:13:48;2.10;;;0.83;;
19653;SDS011;9975;48.046;7.804;2023-04-24T02:16:15;1.23;;;0.40;;
19653;SDS011;9975;48.046;7.804;2023-04-24T02:18:41;0.70;;;0.63;;
19653;SDS011;9975;48.046;7.804;2023-04-24T02:21:06;0.40;;;0.40;;
19653;SDS011;9975;48.046;7.804;2023-04-24T02:23:32;0.87;;;0.47;;
19653;SDS011;9975;48.046;7.804;2023-04-24T02:25:57;1.17;;;0.50;;
19653;SDS011;9975;48.046;7.804;2023-04-24T02:28:23;4.53;;;0.80;;
19653;SDS011;9975;48.046;7.804;2023-04-24T02:30:49;0.50;;;0.50;;
19653;SDS011;9975;48.046;7.804;2023-04-24T02:33:15;1.43;;;0.50;;
19653;SDS011;9975;48.046;7.804;2023-04-24T02:35:41;0.60;;;0.50;;
19653;SDS011;9975;48.046;7.804;2023-04-24T02:38:06;1.07;;;0.40;;
19653;SDS011;9975;48.046;7.804;2023-04-24T02:40:32;0.60;;;0.50;;
19653;SDS011;9975;48.046;7.804;2023-04-24T02:42:57;5.23;;;0.97;;
19653;SDS011;9975;48.046;7.804;2023-04-24T02:45:23;0.90;;;0.50;;
19653;SDS011;9975;48.046;7.804;2023-04-24T02:47:49;0.87;;;0.53;;
19653;SDS011;9975;48.046;7.804;2023-04-24T02:50:14;2.60;;;0.50;;
19653;SDS011;9975;48.046;7.804;2023-04-24T02:52:40;0.43;;;0.43;;
19653;SDS011;9975;48.046;7.804;2023-04-24T02:55:06;4.23;;;0.80;;
19653;SDS011;9975;48.046;7.804;2023-04-24T02:57:33;0.80;;;0.80;;
19653;SDS011;9975;48.046;7.804;2023-04-24T02:59:58;1.67;;;0.60;;
19653;SDS011;9975;48.046;7.804;2023-04-24T03:02:24;1.80;;;0.50;;
19653;SDS011;9975;48.046;7.804;2023-04-24T03:04:50;0.50;;;0.50;;
19653;SDS011;9975;48.046;7.804;2023-04-24T03:07:16;1.70;;;0.50;;
19653;SDS011;9975;48.046;7.804;2023-04-24T03:09:41;1.13;;;1.13;;
19653;SDS011;9975;48.046;7.804;2023-04-24T03:12:07;6.43;;;1.33;;
19653;SDS011;9975;48.046;7.804;2023-04-24T03:14:33;3.30;;;0.60;;
19653;SDS011;9975;48.046;7.804;2023-04-24T03:16:58;3.13;;;0.83;;
19653;SDS011;9975;48.046;7.804;2023-04-24T03:19:24;2.47;;;0.53;;
19653;SDS011;9975;48.046;7.804;2023-04-24T03:21:50;2.93;;;0.63;;
19653;SDS011;9975;48.046;7.804;2023-04-24T03:24:15;0.93;;;0.50;;
19653;SDS011;9975;48.046;7.804;2023-04-24T03:26:41;1.07;;;0.50;;
19653;SDS011;9975;48.046;7.804;2023-04-24T03:29:07;0.60;;;0.40;;
19653;SDS011;9975;48.046;7.804;2023-04-24T03:31:32;1.43;;;0.50;;
19653;SDS011;9975;48.046;7.804;2023-04-24T03:33:58;0.77;;;0.50;;
19653;SDS011;9975;48.046;7.804;2023-04-24T03:36:24;0.97;;;0.60;;
19653;SDS011;9975;48.046;7.804;2023-04-24T03:38:51;3.70;;;1.07;;
19653;SDS011;9975;48.046;7.804;2023-04-24T03:41:16;0.97;;;0.40;;
19653;SDS011;9975;48.046;7.804;2023-04-24T03:43:42;1.03;;;0.70;;
19653;SDS011;9975;48.046;7.804;2023-04-24T03:46:07;0.70;;;0.50;;
19653;SDS011;9975;48.046;7.804;2023-04-24T03:48:34;0.70;;;0.53;;
19653;SDS011;9975;48.046;7.804;2023-04-24T03:51:00;2.00;;;0.73;;
19653;SDS011;9975;48.046;7.804;2023-04-24T03:53:25;5.30;;;0.80;;
19653;SDS011;9975;48.046;7.804;2023-04-24T03:55:52;1.47;;;0.50;;
19653;SDS011;9975;48.046;7.804;2023-04-24T03:58:18;0.80;;;0.50;;
19653;SDS011;9975;48.046;7.804;2023-04-24T04:00:44;2.73;;;0.50;;
19653;SDS011;9975;48.046;7.804;2023-04-24T04:03:11;1.60;;;0.40;;
19653;SDS011;9975;48.046;7.804;2023-04-24T04:05:38;1.00;;;0.60;;
19653;SDS011;9975;48.046;7.804;2023-04-24T04:08:03;1.87;;;0.83;;
19653;SDS011;9975;48.046;7.804;2023-04-24T04:10:29;2.70;;;0.57;;
19653;SDS011;9975;48.046;7.804;2023-04-24T04:12:54;4.60;;;0.90;;
19653;SDS011;9975;48.046;7.804;2023-04-24T04:15:20;1.30;;;0.53;;
19653;SDS011;9975;48.046;7.804;2023-04-24T04:17:46;1.30;;;0.67;;
19653;SDS011;9975;48.046;7.804;2023-04-24T04:20:12;1.83;;;0.80;;
19653;SDS011;9975;48.046;7.804;2023-04-24T04:22:38;1.30;;;0.90;;
19653;SDS011;9975;48.046;7.804;2023-04-24T04:25:04;3.13;;;0.90;;
19653;SDS011;9975;48.046;7.804;2023-04-24T04:27:30;1.53;;;0.80;;
19653;SDS011;9975;48.046;7.804;2023-04-24T04:30:00;1.70;;;1.00;;
19653;SDS011;9975;48.046;7.804;2023-04-24T04:32:32;1.20;;;0.60;;
19653;SDS011;9975;48.046;7.804;2023-04-24T04:34:59;2.00;;;0.90;;
19653;SDS011;9975;48.046;7.804;2023-04-24T04:37:28;5.83;;;1.17;;
19653;SDS011;9975;48.046;7.804;2023-04-24T04:39:58;2.60;;;0.97;;
19653;SDS011;9975;48.046;7.804;2023-04-24T04:42:24;0.83;;;0.80;;
19653;SDS011;9975;48.046;7.804;2023-04-24T04:44:50;0.90;;;0.90;;
19653;SDS011;9975;48.046;7.804;2023-04-24T04:47:16;1.37;;;0.90;;
19653;SDS011;9975;48.046;7.804;2023-04-24T04:49:43;0.80;;;0.80;;
19653;SDS011;9975;48.046;7.804;2023-04-24T04:52:09;0.70;;;0.70;;
19653;SDS011;9975;48.046;7.804;2023-04-24T04:54:34;1.80;;;1.03;;
19653;SDS011;9975;48.046;7.804;2023-04-24T04:57:00;1.00;;;0.93;;
19653;SDS011;9975;48.046;7.804;2023-04-24T04:59:26;6.13;;;1.63;;
19653;SDS011;9975;48.046;7.804;2023-04-24T05:01:52;4.10;;;1.37;;
19653;SDS011;9975;48.046;7.804;2023-04-24T05:04:18;1.40;;;0.90;;
19653;SDS011;9975;48.046;7.804;2023-04-24T05:06:43;0.83;;;0.83;;
19653;SDS011;9975;48.046;7.804;2023-04-24T05:09:09;4.80;;;1.20;;
19653;SDS011;9975;48.046;7.804;2023-04-24T05:11:35;2.20;;;1.03;;
19653;SDS011;9975;48.046;7.804;2023-04-24T05:14:01;1.40;;;0.90;;
19653;SDS011;9975;48.046;7.804;2023-04-24T05:16:26;1.10;;;0.97;;
19653;SDS011;9975;48.046;7.804;2023-04-24T05:18:52;1.63;;;0.77;;
19653;SDS011;9975;48.046;7.804;2023-04-24T05:21:17;0.70;;;0.70;;
19653;SDS011;9975;48.046;7.804;2023-04-24T05:23:43;1.43;;;1.17;;
19653;SDS011;9975;48.046;7.804;2023-04-24T05:26:09;2.80;;;1.40;;
19653;SDS011;9975;48.046;7.804;2023-04-24T05:28:35;3.13;;;1.77;;
19653;SDS011;9975;48.046;7.804;2023-04-24T05:31:01;1.60;;;1.20;;
19653;SDS011;9975;48.046;7.804;2023-04-24T05:33:27;3.10;;;1.00;;
19653;SDS011;9975;48.046;7.804;2023-04-24T05:35:53;3.30;;;1.10;;
19653;SDS011;9975;48.046;7.804;2023-04-24T05:38:19;1.43;;;1.23;;
19653;SDS011;9975;48.046;7.804;2023-04-24T05:40:45;2.70;;;1.10;;
19653;SDS011;9975;48.046;7.804;2023-04-24T05:43:11;1.70;;;1.00;;
19653;SDS011;9975;48.046;7.804;2023-04-24T05:45:37;3.37;;;1.53;;
19653;SDS011;9975;48.046;7.804;2023-04-24T05:48:03;1.60;;;1.40;;
19653;SDS011;9975;48.046;7.804;2023-04-24T05:50:29;2.40;;;1.70;;
19653;SDS011;9975;48.046;7.804;2023-04-24T05:52:55;2.17;;;1.63;;
19653;SDS011;9975;48.046;7.804;2023-04-24T05:55:23;1.30;;;1.20;;
19653;SDS011;9975;48.046;7.804;2023-04-24T05:57:51;1.50;;;1.40;;
19653;SDS011;9975;48.046;7.804;2023-04-24T06:00:17;1.43;;;1.30;;
19653;SDS011;9975;48.046;7.804;2023-04-24T06:02:44;1.57;;;1.33;;
19653;SDS011;9975;48.046;7.804;2023-04-24T06:05:11;1.67;;;1.57;;
19653;SDS011;9975;48.046;7.804;2023-04-24T06:07:36;2.47;;;1.43;;
19653;SDS011;9975;48.046;7.804;2023-04-24T06:10:02;1.93;;;1.53;;
19653;SDS011;9975;48.046;7.804;2023-04-24T06:12:28;11.50;;;2.10;;
19653;SDS011;9975;48.046;7.804;2023-04-24T06:14:54;2.30;;;1.50;;
19653;SDS011;9975;48.046;7.804;2023-04-24T06:17:20;2.63;;;2.10;;
19653;SDS011;9975;48.046;7.804;2023-04-24T06:19:46;2.60;;;1.50;;
19653;SDS011;9975;48.046;7.804;2023-04-24T06:22:12;2.40;;;1.60;;
19653;SDS011;9975;48.046;7.804;2023-04-24T06:24:39;3.20;;;1.93;;
19653;SDS011;9975;48.046;7.804;2023-04-24T06:27:05;3.20;;;1.80;;
19653;SDS011;9975;48.046;7.804;2023-04-24T06:29:30;4.40;;;2.23;;
19653;SDS011;9975;48.046;7.804;2023-04-24T06:31:56;2.43;;;1.97;;
19653;SDS011;9975;48.046;7.804;2023-04-24T06:34:21;4.33;;;1.70;;
19653;SDS011;9975;48.046;7.804;2023-04-24T06:36:47;1.70;;;1.60;;
19653;SDS011;9975;48.046;7.804;2023-04-24T06:39:13;3.70;;;2.07;;
19653;SDS011;9975;48.046;7.804;2023-04-24T06:41:38;6.10;;;2.40;;
19653;SDS011;9975;48.046;7.804;2023-04-24T06:44:05;3.87;;;2.03;;
19653;SDS011;9975;48.046;7.804;2023-04-24T06:46:30;3.03;;;1.67;;
19653;SDS011;9975;48.046;7.804;2023-04-24T06:48:56;2.10;;;1.90;;
19653;SDS011;9975;48.046;7.804;2023-04-24T06:51:25;2.60;;;1.70;;
19653;SDS011;9975;48.046;7.804;2023-04-24T06:53:52;2.20;;;2.00;;
19653;SDS011;9975;48.046;7.804;2023-04-24T06:56:18;1.83;;;1.50;;
19653;SDS011;9975;48.046;7.804;2023-04-24T06:58:45;3.60;;;1.83;;
19653;SDS011;9975;48.046;7.804;2023-04-24T07:01:11;1.80;;;1.70;;
19653;SDS011;9975;48.046;7.804;2023-04-24T07:03:37;1.67;;;1.23;;
19653;SDS011;9975;48.046;7.804;2023-04-24T07:06:04;2.10;;;1.93;;
19653;SDS011;9975;48.046;7.804;2023-04-24T07:08:30;2.70;;;1.60;;
19653;SDS011;9975;48.046;7.804;2023-04-24T07:10:56;2.43;;;1.90;;
19653;SDS011;9975;48.046;7.804;2023-04-24T07:13:22;1.57;;;1.40;;
19653;SDS011;9975;48.046;7.804;2023-04-24T07:15:48;3.40;;;1.70;;
19653;SDS011;9975;48.046;7.804;2023-04-24T07:18:19;1.60;;;1.50;;
19653;SDS011;9975;48.046;7.804;2023-04-24T07:20:45;1.30;;;1.20;;
19653;SDS011;9975;48.046;7.804;2023-04-24T07:23:11;2.37;;;1.23;;
19653;SDS011;9975;48.046;7.804;2023-04-24T07:25:36;2.07;;;1.70;;
19653;SDS011;9975;48.046;7.804;2023-04-24T07:28:03;1.60;;;1.50;;
19653;SDS011;9975;48.046;7.804;2023-04-24T07:30:29;1.43;;;1.33;;
19653;SDS011;9975;48.046;7.804;2023-04-24T07:32:57;1.40;;;1.17;;
19653;SDS011;9975;48.046;7.804;2023-04-24T07:35:23;2.90;;;1.43;;
19653;SDS011;9975;48.046;7.804;2023-04-24T07:37:51;4.60;;;1.33;;
19653;SDS011;9975;48.046;7.804;2023-04-24T07:40:17;1.53;;;1.43;;
19653;SDS011;9975;48.046;7.804;2023-04-24T07:42:43;1.40;;;1.30;;
19653;SDS011;9975;48.046;7.804;2023-04-24T07:45:09;3.93;;;1.53;;
19653;SDS011;9975;48.046;7.804;2023-04-24T07:47:35;1.10;;;0.90;;
19653;SDS011;9975;48.046;7.804;2023-04-24T07:50:02;3.13;;;1.80;;
19653;SDS011;9975;48.046;7.804;2023-04-24T07:52:28;1.33;;;1.23;;
19653;SDS011;9975;48.046;7.804;2023-04-24T07:54:54;2.50;;;1.87;;
19653;SDS011;9975;48.046;7.804;2023-04-24T07:57:23;2.53;;;1.67;;
19653;SDS011;9975;48.046;7.804;2023-04-24T07:59:50;3.00;;;2.03;;
19653;SDS011;9975;48.046;7.804;2023-04-24T08:02:15;4.40;;;2.03;;
19653;SDS011;9975;48.046;7.804;2023-04-24T08:04:41;1.50;;;1.30;;
19653;SDS011;9975;48.046;7.804;2023-04-24T08:07:07;5.87;;;1.40;;
19653;SDS011;9975;48.046;7.804;2023-04-24T08:09:33;2.87;;;1.90;;
19653;SDS011;9975;48.046;7.804;2023-04-24T08:11:58;2.37;;;1.90;;
19653;SDS011;9975;48.046;7.804;2023-04-24T08:14:24;1.60;;;1.50;;
19653;SDS011;9975;48.046;7.804;2023-04-24T08:16:50;4.47;;;1.60;;
19653;SDS011;9975;48.046;7.804;2023-04-24T08:19:17;1.57;;;1.40;;
19653;SDS011;9975;48.046;7.804;2023-04-24T08:21:43;2.00;;;1.90;;
19653;SDS011;9975;48.046;7.804;2023-04-24T08:24:08;2.03;;;1.50;;
19653;SDS011;9975;48.046;7.804;2023-04-24T08:26:34;1.80;;;1.70;;
19653;SDS011;9975;48.046;7.804;2023-04-24T08:28:59;4.00;;;1.60;;
19653;SDS011;9975;48.046;7.804;2023-04-24T08:31:25;1.47;;;1.20;;
19653;SDS011;9975;48.046;7.804;2023-04-24T08:33:51;5.30;;;1.27;;
19653;SDS011;9975;48.046;7.804;2023-04-24T08:36:17;1.20;;;1.03;;
19653;SDS011;9975;48.046;7.804;2023-04-24T08:38:43;6.87;;;1.43;;
19653;SDS011;9975;48.046;7.804;2023-04-24T08:41:08;1.57;;;1.00;;
19653;SDS011;9975;48.046;7.804;2023-04-24T08:43:34;2.30;;;1.40;;
19653;SDS011;9975;48.046;7.804;2023-04-24T08:46:03;6.33;;;1.80;;
19653;SDS011;9975;48.046;7.804;2023-04-24T08:48:29;3.97;;;2.17;;
19653;SDS011;9975;48.046;7.804;2023-04-24T08:50:56;2.17;;;1.27;;
19653;SDS011;9975;48.046;7.804;2023-04-24T08:53:22;2.40;;;1.50;;
19653;SDS011;9975;48.046;7.804;2023-04-24T08:55:50;2.77;;;1.10;;
19653;SDS011;9975;48.046;7.804;2023-04-24T08:58:16;2.40;;;1.23;;
19653;SDS011;9975;48.046;7.804;2023-04-24T09:00:43;2.73;;;1.20;;
19653;SDS011;9975;48.046;7.804;2023-04-24T09:03:12;1.27;;;1.10;;
19653;SDS011;9975;48.046;7.804;2023-04-24T09:05:46;1.30;;;1.03;;
19653;SDS011;9975;48.046;7.804;2023-04-24T09:08:13;2.33;;;1.90;;
19653;SDS011;9975;48.046;7.804;2023-04-24T09:10:39;3.33;;;1.00;;
19653;SDS011;9975;48.046;7.804;2023-04-24T09:13:05;0.93;;;0.90;;
19653;SDS011;9975;48.046;7.804;2023-04-24T09:15:34;1.23;;;1.13;;
19653;SDS011;9975;48.046;7.804;2023-04-24T09:18:00;3.43;;;1.10;;
19653;SDS011;9975;48.046;7.804;2023-04-24T09:20:26;3.73;;;1.10;;
19653;SDS011;9975;48.046;7.804;2023-04-24T09:22:56;1.73;;;1.00;;
19653;SDS011;9975;48.046;7.804;2023-04-24T09:25:22;2.10;;;1.50;;
19653;SDS011;9975;48.046;7.804;2023-04-24T09:28:02;2.07;;;1.20;;
19653;SDS011;9975;48.046;7.804;2023-04-24T09:30:29;3.13;;;1.67;;
19653;SDS011;9975;48.046;7.804;2023-04-24T09:33:13;1.33;;;1.20;;
19653;SDS011;9975;48.046;7.804;2023-04-24T09:35:50;2.40;;;1.10;;
19653;SDS011;9975;48.046;7.804;2023-04-24T09:38:16;2.87;;;1.10;;
19653;SDS011;9975;48.046;7.804;2023-04-24T09:40:42;9.37;;;1.10;;
19653;SDS011;9975;48.046;7.804;2023-04-24T09:43:11;2.10;;;1.17;;
19653;SDS011;9975;48.046;7.804;2023-04-24T09:45:37;0.90;;;0.80;;
19653;SDS011;9975;48.046;7.804;2023-04-24T09:48:04;2.40;;;1.10;;
19653;SDS011;9975;48.046;7.804;2023-04-24T09:50:31;3.60;;;0.90;;
19653;SDS011;9975;48.046;7.804;2023-04-24T09:52:57;1.03;;;0.67;;
19653;SDS011;9975;48.046;7.804;2023-04-24T09:55:26;1.07;;;1.00;;
19653;SDS011;9975;48.046;7.804;2023-04-24T10:00:28;1.00;;;0.50;;
19653;SDS011;9975;48.046;7.804;2023-04-24T10:02:56;0.70;;;0.70;;
19653;SDS011;9975;48.046;7.804;2023-04-24T10:05:23;0.90;;;0.70;;
19653;SDS011;9975;48.046;7.804;2023-04-24T10:07:50;1.40;;;0.70;;
19653;SDS011;9975;48.046;7.804;2023-04-24T10:10:16;0.87;;;0.63;;
19653;SDS011;9975;48.046;7.804;2023-04-24T10:12:42;0.80;;;0.47;;
19653;SDS011;9975;48.046;7.804;2023-04-24T10:15:09;1.00;;;0.80;;
19653;SDS011;9975;48.046;7.804;2023-04-24T10:17:37;1.20;;;0.70;;
19653;SDS011;9975;48.046;7.804;2023-04-24T10:20:04;0.57;;;0.57;;
19653;SDS011;9975;48.046;7.804;2023-04-24T10:22:32;1.47;;;0.53;;
19653;SDS011;9975;48.046;7.804;2023-04-24T10:24:58;0.40;;;0.40;;
19653;SDS011;9975;48.046;7.804;2023-04-24T10:27:24;0.60;;;0.50;;
19653;SDS011;9975;48.046;7.804;2023-04-24T10:29:52;0.87;;;0.60;;
19653;SDS011;9975;48.046;7.804;2023-04-24T10:32:18;1.13;;;0.60;;
19653;SDS011;9975;48.046;7.804;2023-04-24T10:34:44;1.13;;;0.70;;
19653;SDS011;9975;48.046;7.804;2023-04-24T10:37:10;5.60;;;1.17;;
19653;SDS011;9975;48.046;7.804;2023-04-24T10:39:35;0.77;;;0.50;;
19653;SDS011;9975;48.046;7.804;2023-04-24T10:42:12;2.43;;;1.27;;
19653;SDS011;9975;48.046;7.804;2023-04-24T10:44:40;2.50;;;0.70;;
19653;SDS011;9975;48.046;7.804;2023-04-24T10:47:06;1.47;;;0.70;;
19653;SDS011;9975;48.046;7.804;2023-04-24T10:49:38;6.30;;;2.30;;
19653;SDS011;9975;48.046;7.804;2023-04-24T10:52:04;0.70;;;0.50;;
19653;SDS011;9975;48.046;7.804;2023-04-24T10:54:36;1.77;;;0.93;;
19653;SDS011;9975;48.046;7.804;2023-04-24T10:59:50;2.70;;;0.60;;
19653;SDS011;9975;48.046;7.804;2023-04-24T11:02:37;2.30;;;0.80;;
19653;SDS011;9975;48.046;7.804;2023-04-24T11:05:05;0.80;;;0.80;;
19653;SDS011;9975;48.046;7.804;2023-04-24T11:10:45;1.63;;;0.70;;
19653;SDS011;9975;48.046;7.804;2023-04-24T11:13:15;0.97;;;0.87;;
19653;SDS011;9975;48.046;7.804;2023-04-24T11:15:42;1.63;;;0.90;;
19653;SDS011;9975;48.046;7.804;2023-04-24T11:18:12;1.47;;;0.80;;
19653;SDS011;9975;48.046;7.804;2023-04-24T11:20:43;0.60;;;0.60;;
19653;SDS011;9975;48.046;7.804;2023-04-24T11:23:11;3.10;;;1.93;;
19653;SDS011;9975;48.046;7.804;2023-04-24T11:25:38;1.47;;;0.70;;
19653;SDS011;9975;48.046;7.804;2023-04-24T11:28:04;1.70;;;1.00;;
19653;SDS011;9975;48.046;7.804;2023-04-24T11:30:30;1.53;;;0.63;;
19653;SDS011;9975;48.046;7.804;2023-04-24T11:33:04;1.00;;;0.77;;
19653;SDS011;9975;48.046;7.804;2023-04-24T11:35:34;2.83;;;0.90;;
19653;SDS011;9975;48.046;7.804;2023-04-24T11:38:04;2.13;;;1.13;;
19653;SDS011;9975;48.046;7.804;2023-04-24T11:40:30;1.63;;;1.17;;
19653;SDS011;9975;48.046;7.804;2023-04-24T11:42:56;1.27;;;1.17;;
19653;SDS011;9975;48.046;7.804;2023-04-24T11:45:26;2.70;;;2.37;;
19653;SDS011;9975;48.046;7.804;2023-04-24T11:47:52;2.03;;;0.77;;
19653;SDS011;9975;48.046;7.804;2023-04-24T11:50:19;2.87;;;1.27;;
19653;SDS011;9975;48.046;7.804;2023-04-24T11:52:47;1.20;;;1.10;;
19653;SDS011;9975;48.046;7.804;2023-04-24T11:57:39;0.60;;;0.60;;
19653;SDS011;9975;48.046;7.804;2023-04-24T12:00:14;0.70;;;0.70;;
19653;SDS011;9975;48.046;7.804;2023-04-24T12:02:42;0.60;;;0.50;;
19653;SDS011;9975;48.046;7.804;2023-04-24T12:05:07;1.20;;;0.73;;
19653;SDS011;9975;48.046;7.804;2023-04-24T12:07:39;2.00;;;0.90;;
19653;SDS011;9975;48.046;7.804;2023-04-24T12:10:09;1.20;;;1.10;;
19653;SDS011;9975;48.046;7.804;2023-04-24T12:12:35;0.97;;;0.90;;
19653;SDS011;9975;48.046;7.804;2023-04-24T12:15:01;1.73;;;1.10;;
19653;SDS011;9975;48.046;7.804;2023-04-24T12:17:32;2.20;;;1.03;;
19653;SDS011;9975;48.046;7.804;2023-04-24T12:22:44;0.67;;;0.67;;
19653;SDS011;9975;48.046;7.804;2023-04-24T12:25:15;0.70;;;0.70;;
19653;SDS011;9975;48.046;7.804;2023-04-24T12:27:41;1.07;;;0.97;;
19653;SDS011;9975;48.046;7.804;2023-04-24T12:30:12;1.90;;;0.77;;
19653;SDS011;9975;48.046;7.804;2023-04-24T12:32:49;3.00;;;0.80;;
19653;SDS011;9975;48.046;7.804;2023-04-24T12:35:19;1.20;;;0.63;;
19653;SDS011;9975;48.046;7.804;2023-04-24T12:37:46;0.87;;;0.70;;
19653;SDS011;9975;48.046;7.804;2023-04-24T12:40:12;1.50;;;0.90;;
19653;SDS011;9975;48.046;7.804;2023-04-24T12:42:45;2.40;;;0.80;;
19653;SDS011;9975;48.046;7.804;2023-04-24T12:45:12;1.47;;;0.80;;
19653;SDS011;9975;48.046;7.804;2023-04-24T12:47:39;1.90;;;1.07;;
19653;SDS011;9975;48.046;7.804;2023-04-24T12:50:07;0.60;;;0.60;;
19653;SDS011;9975;48.046;7.804;2023-04-24T12:52:33;1.67;;;0.83;;
19653;SDS011;9975;48.046;7.804;2023-04-24T12:54:59;1.37;;;1.17;;
19653;SDS011;9975;48.046;7.804;2023-04-24T12:57:27;1.07;;;0.87;;
19653;SDS011;9975;48.046;7.804;2023-04-24T12:59:54;0.93;;;0.80;;
19653;SDS011;9975;48.046;7.804;2023-04-24T13:02:21;1.27;;;1.10;;
19653;SDS011;9975;48.046;7.804;2023-04-24T13:04:48;1.20;;;0.90;;
19653;SDS011;9975;48.046;7.804;2023-04-24T13:07:14;0.90;;;0.87;;
19653;SDS011;9975;48.046;7.804;2023-04-24T13:09:40;2.93;;;0.80;;
19653;SDS011;9975;48.046;7.804;2023-04-24T13:12:07;5.20;;;1.73;;
19653;SDS011;9975;48.046;7.804;2023-04-24T13:14:33;0.80;;;0.80;;
19653;SDS011;9975;48.046;7.804;2023-04-24T13:16:59;0.87;;;0.87;;
19653;SDS011;9975;48.046;7.804;2023-04-24T13:19:25;1.40;;;1.07;;
19653;SDS011;9975;48.046;7.804;2023-04-24T13:21:51;3.30;;;0.97;;
19653;SDS011;9975;48.046;7.804;2023-04-24T13:24:17;2.10;;;0.77;;
19653;SDS011;9975;48.046;7.804;2023-04-24T13:26:43;1.30;;;1.10;;
19653;SDS011;9975;48.046;7.804;2023-04-24T13:29:08;1.20;;;0.60;;
19653;SDS011;9975;48.046;7.804;2023-04-24T13:31:34;0.80;;;0.80;;
19653;SDS011;9975;48.046;7.804;2023-04-24T13:34:01;0.70;;;0.70;;
19653;SDS011;9975;48.046;7.804;2023-04-24T13:36:27;1.07;;;0.70;;
19653;SDS011;9975;48.046;7.804;2023-04-24T13:38:53;3.07;;;1.30;;
19653;SDS011;9975;48.046;7.804;2023-04-24T13:41:19;2.90;;;0.90;;
19653;SDS011;9975;48.046;7.804;2023-04-24T13:43:45;1.40;;;0.80;;
19653;SDS011;9975;48.046;7.804;2023-04-24T13:46:10;1.60;;;1.03;;
19653;SDS011;9975;48.046;7.804;2023-04-24T13:48:36;0.97;;;0.97;;
19653;SDS011;9975;48.046;7.804;2023-04-24T13:51:01;1.27;;;1.17;;
19653;SDS011;9975;48.046;7.804;2023-04-24T13:53:27;3.03;;;1.77;;
19653;SDS011;9975;48.046;7.804;2023-04-24T13:55:53;1.10;;;0.90;;
19653;SDS011;9975;48.046;7.804;2023-04-24T13:58:18;3.83;;;1.70;;
19653;SDS011;9975;48.046;7.804;2023-04-24T14:00:44;1.87;;;0.80;;
19653;SDS011;9975;48.046;7.804;2023-04-24T14:03:10;1.13;;;1.13;;
19653;SDS011;9975;48.046;7.804;2023-04-24T14:05:36;2.13;;;1.40;;
19653;SDS011;9975;48.046;7.804;2023-04-24T14:08:01;1.60;;;1.50;;
19653;SDS011;9975;48.046;7.804;2023-04-24T14:10:27;1.90;;;1.00;;
19653;SDS011;9975;48.046;7.804;2023-04-24T14:12:53;2.10;;;1.23;;
19653;SDS011;9975;48.046;7.804;2023-04-24T14:15:18;1.50;;;1.20;;
19653;SDS011;9975;48.046;7.804;2023-04-24T14:17:44;1.87;;;1.30;;
19653;SDS011;9975;48.046;7.804;2023-04-24T14:20:11;2.97;;;1.60;;
19653;SDS011;9975;48.046;7.804;2023-04-24T14:22:37;4.37;;;0.90;;
19653;SDS011;9975;48.046;7.804;2023-04-24T14:25:03;2.80;;;1.83;;
19653;SDS011;9975;48.046;7.804;2023-04-24T14:27:30;1.27;;;1.17;;
19653;SDS011;9975;48.046;7.804;2023-04-24T14:29:57;1.57;;;1.17;;
19653;SDS011;9975;48.046;7.804;2023-04-24T14:32:22;2.20;;;1.00;;
19653;SDS011;9975;48.046;7.804;2023-04-24T14:34:48;0.80;;;0.80;;
19653;SDS011;9975;48.046;7.804;2023-04-24T14:37:14;1.10;;;0.93;;
19653;SDS011;9975;48.046;7.804;2023-04-24T14:39:40;1.03;;;1.00;;
19653;SDS011;9975;48.046;7.804;2023-04-24T14:42:05;1.30;;;0.90;;
19653;SDS011;9975;48.046;7.804;2023-04-24T14:44:31;1.00;;;1.00;;
19653;SDS011;9975;48.046;7.804;2023-04-24T14:46:57;2.47;;;1.47;;
19653;SDS011;9975;48.046;7.804;2023-04-24T14:49:23;1.63;;;1.20;;
19653;SDS011;9975;48.046;7.804;2023-04-24T14:51:49;1.67;;;1.00;;
19653;SDS011;9975;48.046;7.804;2023-04-24T14:54:15;2.10;;;1.00;;
19653;SDS011;9975;48.046;7.804;2023-04-24T14:56:40;1.43;;;1.07;;
19653;SDS011;9975;48.046;7.804;2023-04-24T14:59:07;2.07;;;0.93;;
19653;SDS011;9975;48.046;7.804;2023-04-24T15:01:33;3.00;;;1.80;;
19653;SDS011;9975;48.046;7.804;2023-04-24T15:03:59;2.13;;;1.30;;
19653;SDS011;9975;48.046;7.804;2023-04-24T15:06:24;1.70;;;1.00;;
19653;SDS011;9975;48.046;7.804;2023-04-24T15:08:50;1.37;;;1.20;;
19653;SDS011;9975;48.046;7.804;2023-04-24T15:11:16;1.20;;;1.03;;
19653;SDS011;9975;48.046;7.804;2023-04-24T15:13:42;3.97;;;1.60;;
19653;SDS011;9975;48.046;7.804;2023-04-24T15:16:10;1.60;;;1.50;;
19653;SDS011;9975;48.046;7.804;2023-04-24T15:18:35;2.47;;;1.70;;
19653;SDS011;9975;48.046;7.804;2023-04-24T15:21:01;1.70;;;1.03;;
19653;SDS011;9975;48.046;7.804;2023-04-24T15:23:27;3.77;;;1.47;;
19653;SDS011;9975;48.046;7.804;2023-04-24T15:25:52;1.77;;;1.37;;
19653;SDS011;9975;48.046;7.804;2023-04-24T15:28:18;3.17;;;2.20;;
19653;SDS011;9975;48.046;7.804;2023-04-24T15:30:44;2.30;;;1.47;;
19653;SDS011;9975;48.046;7.804;2023-04-24T15:33:10;3.27;;;1.90;;
19653;SDS011;9975;48.046;7.804;2023-04-24T15:35:35;3.43;;;1.87;;
19653;SDS011;9975;48.046;7.804;2023-04-24T15:38:01;1.70;;;1.57;;
19653;SDS011;9975;48.046;7.804;2023-04-24T15:40:27;2.30;;;1.40;;
19653;SDS011;9975;48.046;7.804;2023-04-24T15:42:53;1.50;;;1.40;;
19653;SDS011;9975;48.046;7.804;2023-04-24T15:45:18;1.37;;;1.10;;
19653;SDS011;9975;48.046;7.804;2023-04-24T15:47:44;3.50;;;1.23;;
19653;SDS011;9975;48.046;7.804;2023-04-24T15:50:13;1.70;;;1.40;;
19653;SDS011;9975;48.046;7.804;2023-04-24T15:52:41;2.90;;;2.53;;
19653;SDS011;9975;48.046;7.804;2023-04-24T15:55:09;7.73;;;6.40;;
19653;SDS011;9975;48.046;7.804;2023-04-24T15:57:35;15.37;;;8.63;;
19653;SDS011;9975;48.046;7.804;2023-04-24T16:00:01;6.53;;;4.30;;
19653;SDS011;9975;48.046;7.804;2023-04-24T16:02:31;9.60;;;5.13;;
19653;SDS011;9975;48.046;7.804;2023-04-24T16:04:57;18.73;;;10.93;;
19653;SDS011;9975;48.046;7.804;2023-04-24T16:07:22;12.33;;;7.93;;
19653;SDS011;9975;48.046;7.804;2023-04-24T16:09:48;6.40;;;5.27;;
19653;SDS011;9975;48.046;7.804;2023-04-24T16:12:13;4.53;;;3.60;;
19653;SDS011;9975;48.046;7.804;2023-04-24T16:14:39;11.07;;;7.50;;
19653;SDS011;9975;48.046;7.804;2023-04-24T16:17:05;3.17;;;2.87;;
19653;SDS011;9975;48.046;7.804;2023-04-24T16:19:31;3.60;;;1.43;;
19653;SDS011;9975;48.046;7.804;2023-04-24T16:21:58;2.40;;;1.47;;
19653;SDS011;9975;48.046;7.804;2023-04-24T16:24:24;1.70;;;1.33;;
19653;SDS011;9975;48.046;7.804;2023-04-24T16:26:50;2.23;;;1.40;;
19653;SDS011;9975;48.046;7.804;2023-04-24T16:29:17;7.87;;;1.43;;
19653;SDS011;9975;48.046;7.804;2023-04-24T16:31:43;2.57;;;1.90;;
19653;SDS011;9975;48.046;7.804;2023-04-24T16:34:09;1.63;;;1.53;;
19653;SDS011;9975;48.046;7.804;2023-04-24T16:36:35;1.83;;;1.70;;
19653;SDS011;9975;48.046;7.804;2023-04-24T16:39:01;1.43;;;1.10;;
19653;SDS011;9975;48.046;7.804;2023-04-24T16:41:29;5.10;;;2.50;;
19653;SDS011;9975;48.046;7.804;2023-04-24T16:43:55;2.20;;;1.80;;
19653;SDS011;9975;48.046;7.804;2023-04-24T16:46:21;1.47;;;1.37;;
19653;SDS011;9975;48.046;7.804;2023-04-24T16:48:46;3.87;;;2.33;;
19653;SDS011;9975;48.046;7.804;2023-04-24T16:51:12;4.00;;;1.53;;
19653;SDS011;9975;48.046;7.804;2023-04-24T16:53:37;4.03;;;1.57;;
19653;SDS011;9975;48.046;7.804;2023-04-24T16:56:03;2.27;;;1.83;;
19653;SDS011;9975;48.046;7.804;2023-04-24T16:58:29;3.80;;;2.73;;
19653;SDS011;9975;48.046;7.804;2023-04-24T17:00:55;8.50;;;2.57;;
19653;SDS011;9975;48.046;7.804;2023-04-24T17:03:21;2.20;;;1.63;;
19653;SDS011;9975;48.046;7.804;2023-04-24T17:05:47;7.90;;;2.80;;